createdAt,value
2024-01-19T00:02:11.212Z,10.73
2024-01-19T00:04:44.444Z,11.35
2024-01-19T00:07:17.175Z,10.00
2024-01-19T00:09:50.404Z,9.30
2024-01-19T00:12:23.114Z,10.23
2024-01-19T00:14:56.072Z,8.43
2024-01-19T00:17:28.953Z,9.20
2024-01-19T00:20:01.969Z,11.60
2024-01-19T00:22:34.623Z,8.85
2024-01-19T00:25:07.830Z,9.40
2024-01-19T00:27:40.544Z,9.05
2024-01-19T00:30:13.732Z,9.40
2024-01-19T00:32:46.397Z,10.60
2024-01-19T00:35:21.655Z,11.68
2024-01-19T00:37:54.794Z,10.68
2024-01-19T00:40:27.749Z,10.65
2024-01-19T00:43:00.379Z,9.20
2024-01-19T00:45:33.551Z,9.70
2024-01-19T00:48:06.300Z,10.38
2024-01-19T00:50:39.451Z,10.43
2024-01-19T00:53:12.040Z,11.05
2024-01-19T00:55:45.008Z,10.00
2024-01-19T00:58:17.578Z,9.82
2024-01-19T01:00:51.135Z,9.57
2024-01-19T01:03:24.865Z,9.57
2024-01-19T01:05:59.036Z,8.73
2024-01-19T01:08:31.817Z,9.82
2024-01-19T01:11:07.033Z,9.18
2024-01-19T01:13:39.882Z,9.90
2024-01-19T01:16:12.758Z,9.20
2024-01-19T01:18:45.586Z,10.40
2024-01-19T01:21:18.657Z,9.23
2024-01-19T01:23:51.356Z,10.75
2024-01-19T01:26:24.403Z,9.40
2024-01-19T01:28:57.196Z,9.55
2024-01-19T01:31:30.140Z,10.32
2024-01-19T01:34:05.290Z,8.93
2024-01-19T01:36:38.526Z,9.85
2024-01-19T01:39:17.828Z,10.88
2024-01-19T01:41:51.391Z,10.05
2024-01-19T01:44:24.122Z,9.88
2024-01-19T01:46:57.250Z,9.63
2024-01-19T01:49:29.983Z,8.15
2024-01-19T01:52:04.413Z,7.68
2024-01-19T01:54:37.116Z,9.02
2024-01-19T01:57:11.038Z,7.28
2024-01-19T01:59:43.880Z,8.10
2024-01-19T02:02:17.040Z,8.57
2024-01-19T02:04:49.869Z,7.82
2024-01-19T02:07:23.141Z,8.07
2024-01-19T02:09:56.016Z,7.60
2024-01-19T02:12:28.988Z,8.48
2024-01-19T02:15:01.674Z,7.55
2024-01-19T02:17:34.716Z,7.75
2024-01-19T02:20:08.821Z,5.72
2024-01-19T02:22:43.847Z,8.75
2024-01-19T02:25:16.463Z,8.48
2024-01-19T02:27:49.467Z,8.13
2024-01-19T02:30:22.244Z,7.22
2024-01-19T02:32:55.320Z,8.43
2024-01-19T02:35:27.973Z,8.98
2024-01-19T02:38:01.029Z,8.32
2024-01-19T02:40:33.734Z,7.63
2024-01-19T02:43:06.787Z,7.60
2024-01-19T02:45:39.432Z,7.50
2024-01-19T02:48:14.404Z,8.32
2024-01-19T02:50:47.247Z,6.90
2024-01-19T02:53:20.317Z,8.00
2024-01-19T02:55:52.994Z,8.77
2024-01-19T02:58:25.929Z,7.15
2024-01-19T03:01:01.068Z,7.90
2024-01-19T03:03:34.081Z,8.30
2024-01-19T03:06:07.251Z,8.35
2024-01-19T03:08:40.269Z,6.55
2024-01-19T03:11:12.915Z,7.78
2024-01-19T03:13:45.896Z,7.45
2024-01-19T03:16:18.630Z,7.22
2024-01-19T03:18:53.489Z,8.23
2024-01-19T03:21:26.047Z,9.15
2024-01-19T03:23:59.361Z,7.68
2024-01-19T03:26:32.006Z,8.75
2024-01-19T03:29:05.109Z,8.02
2024-01-19T03:31:37.766Z,7.55
2024-01-19T03:34:11.335Z,9.10
2024-01-19T03:36:44.585Z,9.20
2024-01-19T03:39:17.829Z,8.27
2024-01-19T03:41:50.591Z,8.73
2024-01-19T03:44:25.314Z,7.85
2024-01-19T03:47:01.035Z,8.18
2024-01-19T03:49:34.133Z,9.80
2024-01-19T03:52:07.690Z,8.40
2024-01-19T03:54:41.023Z,10.27
2024-01-19T03:57:13.933Z,9.90
2024-01-19T03:59:47.124Z,9.27
2024-01-19T04:02:19.788Z,8.32
2024-01-19T04:04:52.907Z,8.15
2024-01-19T04:07:25.579Z,8.93
2024-01-19T04:09:58.713Z,7.95
2024-01-19T04:12:31.392Z,7.13
2024-01-19T04:15:04.731Z,6.85
2024-01-19T04:17:39.239Z,6.57
2024-01-19T04:33:38.196Z,3.97
2024-01-19T04:36:11.256Z,5.38
2024-01-19T04:38:43.872Z,5.70
2024-01-19T04:41:16.919Z,5.72
2024-01-19T04:43:49.998Z,5.65
2024-01-19T04:46:23.134Z,4.63
2024-01-19T04:48:56.263Z,5.65
2024-01-19T04:51:32.172Z,5.35
2024-01-19T04:54:04.904Z,6.05
2024-01-19T04:56:38.032Z,5.03
2024-01-19T04:59:11.028Z,5.82
2024-01-19T05:15:06.608Z,5.57
2024-01-19T05:17:39.565Z,5.25
2024-01-19T05:20:12.609Z,5.43
2024-01-19T05:22:45.615Z,4.78
2024-01-19T05:25:20.023Z,5.45
2024-01-19T05:27:55.634Z,4.78
2024-01-19T05:30:28.377Z,5.13
2024-01-19T05:33:01.620Z,5.80
2024-01-19T05:35:34.871Z,6.45
2024-01-19T05:38:08.065Z,5.25
2024-01-19T05:40:40.811Z,5.32
2024-01-19T05:43:13.766Z,6.18
2024-01-19T05:45:46.988Z,4.38
2024-01-19T05:48:20.490Z,6.97
2024-01-19T05:50:53.430Z,6.32
2024-01-19T05:53:26.552Z,7.45
2024-01-19T05:55:59.160Z,5.63
2024-01-19T05:58:32.781Z,7.88
2024-01-19T06:01:06.773Z,4.93
2024-01-19T06:03:40.530Z,5.63
2024-01-19T06:06:13.202Z,5.50
2024-01-19T06:08:46.868Z,6.05
2024-01-19T06:11:20.883Z,5.88
2024-01-19T06:13:56.112Z,5.18
2024-01-19T06:16:28.730Z,6.53
2024-01-19T06:19:02.155Z,6.93
2024-01-19T06:21:35.565Z,6.50
2024-01-19T06:24:08.563Z,6.35
2024-01-19T06:26:43.829Z,5.32
2024-01-19T06:29:17.755Z,6.63
2024-01-19T06:31:50.556Z,6.25
2024-01-19T06:34:23.556Z,8.32
2024-01-19T06:36:56.183Z,7.82
2024-01-19T06:39:29.675Z,6.50
2024-01-19T06:42:02.482Z,7.75
2024-01-19T06:44:35.481Z,7.32
2024-01-19T06:47:08.227Z,8.48
2024-01-19T06:49:41.724Z,10.00
2024-01-19T06:52:14.431Z,9.18
2024-01-19T06:54:49.055Z,9.63
2024-01-19T06:57:22.409Z,10.43
2024-01-19T06:59:55.570Z,9.82
2024-01-19T07:02:28.505Z,9.65
2024-01-19T07:05:01.587Z,8.82
2024-01-19T07:07:34.298Z,9.50
2024-01-19T07:10:07.803Z,10.25
2024-01-19T07:12:40.471Z,10.98
2024-01-19T07:15:13.691Z,12.82
2024-01-19T07:17:46.350Z,12.07
2024-01-19T07:20:19.501Z,15.93
2024-01-19T07:22:53.391Z,16.77
2024-01-19T07:25:26.478Z,16.75
2024-01-19T07:27:59.258Z,17.67
2024-01-19T07:30:33.221Z,17.77
2024-01-19T07:33:09.263Z,15.73
2024-01-19T07:35:46.308Z,13.98
2024-01-19T07:38:20.144Z,12.90
2024-01-19T07:40:55.497Z,12.55
2024-01-19T07:43:28.233Z,13.68
2024-01-19T07:46:01.387Z,12.98
2024-01-19T07:48:34.271Z,12.90
2024-01-19T07:51:07.414Z,12.77
2024-01-19T07:53:40.066Z,13.73
2024-01-19T07:56:13.225Z,12.80
2024-01-19T07:58:45.866Z,10.07
2024-01-19T08:01:19.082Z,12.40
2024-01-19T08:03:52.250Z,12.32
2024-01-19T08:06:25.616Z,10.90
2024-01-19T08:08:58.572Z,11.85
2024-01-19T08:11:31.803Z,10.80
2024-01-19T08:14:05.131Z,12.75
2024-01-19T08:16:38.331Z,18.48
2024-01-19T08:19:11.717Z,17.75
2024-01-19T08:21:45.023Z,12.00
2024-01-19T08:24:17.744Z,11.88
2024-01-19T08:26:50.840Z,11.52
2024-01-19T08:29:23.651Z,11.65
2024-01-19T08:31:58.211Z,11.88
2024-01-19T08:34:32.533Z,12.80
2024-01-19T08:37:07.438Z,10.98
2024-01-19T08:39:40.843Z,11.43
2024-01-19T08:42:14.221Z,9.20
2024-01-19T08:44:47.079Z,15.05
2024-01-19T08:47:21.125Z,10.55
2024-01-19T08:49:54.256Z,14.30
2024-01-19T08:52:29.396Z,13.10
2024-01-19T08:55:02.218Z,11.38
2024-01-19T08:57:36.743Z,11.40
2024-01-19T09:00:09.835Z,17.63
2024-01-19T09:02:50.204Z,10.65
2024-01-19T09:05:30.820Z,16.00
2024-01-19T09:08:04.702Z,11.32
2024-01-19T09:10:37.375Z,9.70
2024-01-19T09:13:10.299Z,7.47
2024-01-19T09:15:42.911Z,9.93
2024-01-19T09:18:16.193Z,9.75
2024-01-19T09:20:49.003Z,8.77
2024-01-19T09:23:21.938Z,14.55
2024-01-19T09:25:54.688Z,9.20
2024-01-19T09:28:27.874Z,13.15
2024-01-19T09:31:02.817Z,7.53
2024-01-19T09:33:36.061Z,7.30
2024-01-19T09:36:09.362Z,8.55
2024-01-19T09:38:42.909Z,11.63
2024-01-19T09:41:25.415Z,11.30
2024-01-19T09:44:00.243Z,9.00
2024-01-19T09:46:33.993Z,9.05
2024-01-19T09:49:21.083Z,18.83
2024-01-19T09:52:12.309Z,14.00
2024-01-19T09:54:45.330Z,12.50
2024-01-19T09:57:18.541Z,11.13
2024-01-19T09:59:51.567Z,18.08
2024-01-19T10:02:24.771Z,9.27
2024-01-19T10:05:00.081Z,7.78
2024-01-19T10:07:33.732Z,6.05
2024-01-19T10:10:07.646Z,8.48
2024-01-19T10:12:40.694Z,7.13
2024-01-19T10:15:14.230Z,9.35
2024-01-19T10:17:48.177Z,10.45
2024-01-19T10:20:21.406Z,7.43
2024-01-19T10:22:54.105Z,7.80
2024-01-19T10:25:27.125Z,6.72
2024-01-19T10:27:59.716Z,8.73
2024-01-19T10:30:32.823Z,4.43
2024-01-19T10:33:06.973Z,5.50
2024-01-19T10:35:43.094Z,6.00
2024-01-19T10:38:16.051Z,7.53
2024-01-19T10:40:49.179Z,6.50
2024-01-19T10:43:24.812Z,5.05
2024-01-19T10:45:58.120Z,5.38
2024-01-19T10:48:31.019Z,6.78
2024-01-19T10:51:04.654Z,5.20
2024-01-19T10:53:37.519Z,6.15
2024-01-19T10:56:11.494Z,6.47
2024-01-19T10:58:45.083Z,4.80
2024-01-19T11:01:19.372Z,6.72
2024-01-19T11:03:52.529Z,6.88
2024-01-19T11:06:25.655Z,6.47
2024-01-19T11:08:59.466Z,5.82
2024-01-19T11:11:34.881Z,6.63
2024-01-19T11:14:08.869Z,6.13
2024-01-19T11:16:47.278Z,9.32
2024-01-19T11:19:22.318Z,9.07
2024-01-19T11:21:55.664Z,6.95
2024-01-19T11:24:30.722Z,6.47
2024-01-19T11:27:11.099Z,5.68
2024-01-19T11:29:44.897Z,5.45
2024-01-19T11:32:18.903Z,5.95
2024-01-19T11:34:52.319Z,5.43
2024-01-19T11:37:47.057Z,5.43
2024-01-19T11:40:26.183Z,4.32
2024-01-19T11:42:59.377Z,5.63
2024-01-19T11:45:41.228Z,5.10
2024-01-19T11:48:35.489Z,4.60
2024-01-19T11:51:08.597Z,4.38
2024-01-19T11:53:57.557Z,4.00
2024-01-19T11:56:30.531Z,5.03
2024-01-19T11:59:03.709Z,6.40
2024-01-19T12:01:45.591Z,4.25
2024-01-19T12:04:18.660Z,4.47
2024-01-19T12:07:03.039Z,5.90
2024-01-19T12:09:36.117Z,5.07
2024-01-19T12:12:09.659Z,7.10
2024-01-19T12:14:43.375Z,5.82
2024-01-19T12:17:17.277Z,4.68
2024-01-19T12:19:53.613Z,5.70
2024-01-19T12:22:26.606Z,6.53
2024-01-19T12:25:18.802Z,5.00
2024-01-19T12:28:04.697Z,5.82
2024-01-19T12:30:38.241Z,4.65
2024-01-19T12:33:16.300Z,4.20
2024-01-19T12:35:50.016Z,4.72
2024-01-19T12:38:22.898Z,4.45
2024-01-19T12:40:58.246Z,6.15
2024-01-19T12:43:34.740Z,4.68
2024-01-19T12:46:09.155Z,4.50
2024-01-19T12:48:41.908Z,4.18
2024-01-19T12:51:14.998Z,3.13
2024-01-19T12:53:54.050Z,4.18
2024-01-19T12:56:29.136Z,4.63
2024-01-19T12:59:13.332Z,3.88
2024-01-19T13:01:48.540Z,3.90
2024-01-19T13:04:21.225Z,3.78
2024-01-19T13:06:54.290Z,8.13
2024-01-19T13:09:27.163Z,6.90
2024-01-19T13:12:13.086Z,9.25
2024-01-19T13:14:45.860Z,9.23
2024-01-19T13:17:26.523Z,7.85
2024-01-19T13:19:59.485Z,7.95
2024-01-19T13:22:32.587Z,5.07
2024-01-19T13:25:05.727Z,6.15
2024-01-19T13:27:38.737Z,3.78
2024-01-19T13:30:11.789Z,4.47
2024-01-19T13:32:44.869Z,4.50
2024-01-19T13:35:17.600Z,5.50
2024-01-19T13:37:50.910Z,2.97
2024-01-19T13:40:23.780Z,3.45
2024-01-19T13:42:56.775Z,2.97
2024-01-19T13:45:30.336Z,3.22
2024-01-19T13:48:04.148Z,3.45
2024-01-19T13:50:37.014Z,4.20
2024-01-19T13:53:10.438Z,3.50
2024-01-19T13:55:54.818Z,4.47
2024-01-19T13:58:31.001Z,2.75
2024-01-19T14:01:09.038Z,4.63
2024-01-19T14:03:42.286Z,4.45
2024-01-19T14:06:15.829Z,4.43
2024-01-19T14:08:53.929Z,6.00
2024-01-19T14:11:26.737Z,6.07
2024-01-19T14:13:59.765Z,6.60
2024-01-19T14:16:33.736Z,5.75
2024-01-19T14:19:07.067Z,6.82
2024-01-19T14:21:40.896Z,8.02
2024-01-19T14:24:14.097Z,8.98
2024-01-19T14:26:46.795Z,9.25
2024-01-19T14:29:19.803Z,7.68
2024-01-19T14:31:52.647Z,7.88
2024-01-19T14:34:27.256Z,7.93
2024-01-19T14:37:00.313Z,5.97
2024-01-19T14:39:33.362Z,5.57
2024-01-19T14:42:06.191Z,6.90
2024-01-19T14:44:39.249Z,7.45
2024-01-19T14:47:11.963Z,8.07
2024-01-19T14:49:51.708Z,6.20
2024-01-19T14:52:25.092Z,9.80
2024-01-19T14:55:00.075Z,10.57
2024-01-19T14:57:33.022Z,11.05
2024-01-19T15:00:12.734Z,12.63
2024-01-19T15:02:45.667Z,12.35
2024-01-19T15:05:18.675Z,9.73
2024-01-19T15:07:51.532Z,8.20
2024-01-19T15:10:24.750Z,7.05
2024-01-19T15:12:57.534Z,6.63
2024-01-19T15:15:30.598Z,15.48
2024-01-19T15:18:03.297Z,17.20
2024-01-19T15:20:36.384Z,21.55
2024-01-19T15:23:09.620Z,18.70
2024-01-19T15:25:42.928Z,21.13
2024-01-19T15:28:15.876Z,18.45
2024-01-19T15:30:48.885Z,16.20
2024-01-19T15:33:21.636Z,16.40
2024-01-19T15:35:54.705Z,15.23
2024-01-19T15:38:30.332Z,9.77
2024-01-19T15:41:04.488Z,9.88
2024-01-19T15:43:37.448Z,12.85
2024-01-19T15:46:10.430Z,10.77
2024-01-19T15:48:47.904Z,10.77
2024-01-19T15:51:27.977Z,12.23
2024-01-19T15:54:00.821Z,8.70
2024-01-19T15:56:37.760Z,14.20
2024-01-19T15:59:12.953Z,12.68
2024-01-19T16:01:46.700Z,10.32
2024-01-19T16:04:19.399Z,14.05
2024-01-19T16:06:52.502Z,16.88
2024-01-19T16:09:25.190Z,14.02
2024-01-19T16:11:58.399Z,10.90
2024-01-19T16:14:31.627Z,17.08
2024-01-19T16:17:07.214Z,17.42
2024-01-19T16:19:39.984Z,18.77
2024-01-19T16:22:13.034Z,24.13
2024-01-19T16:24:46.243Z,28.30
2024-01-19T16:27:24.492Z,20.35
2024-01-19T16:29:57.281Z,14.13
2024-01-19T16:32:30.649Z,11.27
2024-01-19T16:35:03.757Z,11.52
2024-01-19T16:37:36.923Z,12.18
2024-01-19T16:40:10.026Z,11.23
2024-01-19T16:42:45.729Z,9.52
2024-01-19T16:45:21.703Z,7.93
2024-01-19T16:48:01.221Z,9.57
2024-01-19T16:50:35.348Z,8.85
2024-01-19T16:53:08.744Z,10.43
2024-01-19T16:55:41.626Z,5.78
2024-01-19T16:58:16.635Z,9.05
2024-01-19T17:00:49.483Z,6.43
2024-01-19T17:03:22.567Z,6.80
2024-01-19T17:05:55.376Z,6.85
2024-01-19T17:08:28.526Z,5.93
2024-01-19T17:11:01.332Z,7.72
2024-01-19T17:13:36.111Z,9.07
2024-01-19T17:16:09.228Z,10.65
2024-01-19T17:18:42.442Z,9.25
2024-01-19T17:21:15.307Z,11.00
2024-01-19T17:23:48.522Z,7.95
2024-01-19T17:26:25.240Z,7.40
2024-01-19T17:28:58.872Z,9.25
2024-01-19T17:31:31.900Z,10.57
2024-01-19T17:34:09.522Z,8.63
2024-01-19T17:36:43.739Z,12.75
2024-01-19T17:39:17.079Z,13.38
2024-01-19T17:41:51.013Z,12.52
2024-01-19T17:44:24.035Z,10.43
2024-01-19T17:46:58.131Z,10.93
2024-01-19T17:49:31.290Z,10.10
2024-01-19T17:52:04.166Z,9.77
2024-01-19T17:54:37.171Z,8.95
2024-01-19T17:57:09.766Z,10.70
2024-01-19T17:59:42.890Z,12.93
2024-01-19T18:02:15.913Z,9.65
2024-01-19T18:04:50.193Z,18.05
2024-01-19T18:07:22.846Z,15.48
2024-01-19T18:09:56.161Z,15.88
2024-01-19T18:12:29.992Z,12.27
2024-01-19T18:15:03.689Z,12.30
2024-01-19T18:17:36.582Z,11.45
2024-01-19T18:20:10.371Z,9.30
2024-01-19T18:22:43.229Z,12.05
2024-01-19T18:25:17.096Z,10.55
2024-01-19T18:27:49.784Z,10.00
2024-01-19T18:30:23.059Z,10.07
2024-01-19T18:32:55.974Z,13.88
2024-01-19T18:35:29.296Z,11.52
2024-01-19T18:38:02.215Z,13.20
2024-01-19T18:40:36.212Z,14.65
2024-01-19T18:43:08.912Z,16.00
2024-01-19T18:45:41.887Z,15.30
2024-01-19T18:48:15.084Z,15.93
2024-01-19T18:50:48.270Z,13.10
2024-01-19T18:53:21.119Z,16.50
2024-01-19T18:55:55.136Z,15.85
2024-01-19T18:58:29.609Z,15.40
2024-01-19T19:01:03.411Z,11.63
2024-01-19T19:03:36.394Z,10.27
2024-01-19T19:06:09.617Z,11.48
2024-01-19T19:08:42.369Z,14.10
2024-01-19T19:11:15.890Z,11.32
2024-01-19T19:13:49.058Z,11.80
2024-01-19T19:16:30.917Z,11.13
2024-01-19T19:19:11.541Z,13.48
2024-01-19T19:21:44.726Z,12.95
2024-01-19T19:24:17.350Z,14.60
2024-01-19T19:26:50.301Z,12.63
2024-01-19T19:29:24.308Z,10.43
2024-01-19T19:31:57.665Z,8.30
2024-01-19T19:34:30.457Z,9.70
2024-01-19T19:37:04.230Z,9.52
2024-01-19T19:39:37.245Z,12.65
2024-01-19T19:42:10.522Z,11.15
2024-01-19T19:44:43.262Z,13.50
2024-01-19T19:47:16.646Z,14.98
2024-01-19T19:49:49.529Z,12.65
2024-01-19T19:52:22.613Z,12.27
2024-01-19T19:54:55.316Z,10.50
2024-01-19T19:57:28.415Z,11.40
2024-01-19T20:00:01.187Z,11.13
2024-01-19T20:02:34.597Z,10.82
2024-01-19T20:05:07.673Z,12.40
2024-01-19T20:07:40.843Z,11.20
2024-01-19T20:10:14.214Z,13.32
2024-01-19T20:12:47.294Z,10.15
2024-01-19T20:15:20.605Z,9.27
2024-01-19T20:17:53.846Z,11.27
2024-01-19T20:20:26.827Z,10.88
2024-01-19T20:22:59.898Z,10.88
2024-01-19T20:25:32.637Z,12.27
2024-01-19T20:28:05.885Z,14.55
2024-01-19T20:30:39.107Z,12.27
2024-01-19T20:33:12.165Z,11.40
2024-01-19T20:35:44.976Z,10.52
2024-01-19T20:38:18.534Z,10.90
2024-01-19T20:40:51.688Z,9.77
2024-01-19T20:43:24.889Z,11.02
2024-01-19T20:45:57.556Z,9.45
2024-01-19T20:48:30.706Z,10.32
2024-01-19T20:51:03.480Z,10.32
2024-01-19T20:53:36.768Z,9.27
2024-01-19T20:56:09.474Z,8.90
2024-01-19T20:58:42.490Z,10.50
2024-01-19T21:01:15.518Z,8.88
2024-01-19T21:03:48.905Z,7.43
2024-01-19T21:06:23.809Z,8.55
2024-01-19T21:08:57.720Z,9.20
2024-01-19T21:11:30.852Z,8.43
2024-01-19T21:14:04.828Z,11.20
2024-01-19T21:16:43.300Z,9.10
2024-01-19T21:19:16.594Z,7.95
2024-01-19T21:21:49.481Z,10.70
2024-01-19T21:24:22.493Z,6.10
2024-01-19T21:26:55.439Z,7.22
2024-01-19T21:29:28.417Z,7.07
2024-01-19T21:32:02.953Z,7.65
2024-01-19T21:34:36.048Z,6.60
2024-01-19T21:37:09.049Z,7.78
2024-01-19T21:39:43.239Z,7.28
2024-01-19T21:42:18.488Z,7.85
2024-01-19T21:44:51.622Z,6.60
2024-01-19T21:47:24.676Z,6.85
2024-01-19T21:49:58.652Z,8.15
2024-01-19T21:52:31.292Z,6.97
2024-01-19T21:55:04.790Z,8.80
2024-01-19T21:57:37.433Z,6.05
2024-01-19T22:00:11.546Z,10.10
2024-01-19T22:02:48.171Z,9.95
2024-01-19T22:05:22.458Z,13.73
2024-01-19T22:07:55.253Z,16.13
2024-01-19T22:10:28.488Z,12.02
2024-01-19T22:13:01.206Z,10.95
2024-01-19T22:15:36.290Z,8.85
2024-01-19T22:18:09.934Z,9.13
2024-01-19T22:20:43.281Z,7.80
2024-01-19T22:23:16.482Z,8.52
2024-01-19T22:25:49.595Z,8.88
2024-01-19T22:28:22.572Z,6.85
2024-01-19T22:30:55.981Z,7.30
2024-01-19T22:33:28.822Z,6.97
2024-01-19T22:36:07.901Z,7.18
2024-01-19T22:38:47.702Z,6.10
2024-01-19T22:41:21.334Z,7.57
2024-01-19T22:43:54.746Z,6.82
2024-01-19T22:46:28.240Z,8.13
2024-01-19T22:49:01.256Z,6.35
2024-01-19T22:51:34.913Z,7.53
2024-01-19T22:54:08.001Z,7.22
2024-01-19T22:56:41.392Z,9.15
2024-01-19T22:59:14.136Z,7.10
2024-01-19T23:01:48.824Z,6.65
2024-01-19T23:04:21.679Z,6.75
2024-01-19T23:06:54.687Z,9.15
2024-01-19T23:09:27.384Z,8.60
2024-01-19T23:12:02.951Z,8.65
2024-01-19T23:14:35.955Z,9.07
2024-01-19T23:17:09.084Z,6.05
2024-01-19T23:19:41.944Z,5.72
2024-01-19T23:22:15.763Z,7.88
2024-01-19T23:24:48.531Z,11.10
2024-01-19T23:27:21.860Z,7.72
2024-01-19T23:29:54.727Z,8.60
2024-01-19T23:32:27.974Z,7.25
2024-01-19T23:35:03.056Z,10.13
2024-01-19T23:37:36.199Z,9.52
2024-01-19T23:40:09.259Z,6.78
2024-01-19T23:42:42.862Z,6.15
2024-01-19T23:45:17.353Z,9.52
2024-01-19T23:47:50.678Z,6.78
2024-01-19T23:50:23.778Z,8.07
2024-01-19T23:52:57.100Z,10.07
2024-01-19T23:55:30.028Z,7.88
2024-01-19T23:58:03.389Z,10.05
